McGhee Tyson ANG Base, Tennessee
Current Conditions -  °F | °C
As of 6:53 AM on Sunday 23 Nov 2014 (Local Time) from KTYS Reporting Station
Overcast Overcast  
Wind Chill: 40°   Ceiling: 8000
Heat Index: 45°   Visibility: 10mi
Dew Point: 32°   Wind: 10mph
Humidity: 60%   Direction: 30°NNE
Pressure: 30.04"   Gusts: NA
Location:  35.812°N, 84.0922°W
Report Text: KTYS 231153Z 03009KT 10SM BKN080 BKN150 OVC250 07/00 A3004 RMK AO2 SLP172 T00720000 10078 20033 58024
Loading
Personal Weather Stations






























Interactive Weather Map New forecast layout! Learn more

10-Day Weather Forecast

Advertisements
Track Severe Weather on mobile